Time;durP1;ratioP1;P1;durP2;ratioP2;P2;SDS_P1;SDS_P2;PMS_P1;PMS_P2;Temp;Humidity;BMP_temperature;BMP_pressure;BME280_temperature;BME280_humidity;BME280_pressure;Samples;Min_cycle;Max_cycle;Signal;HPM_P1;HPM_P2
2022/08/30 00:01:06;;;;;;;;;;;;;;;27.55;45.25;98633.72;5093073;28;19916;-49
2022/08/30 00:03:33;;;;;;;;;;;;;;;27.44;45.28;98635.88;5093066;28;20389;-48
2022/08/30 00:05:58;;;;;;;;;;;;;;;27.29;45.90;98641.72;5091678;28;19998;-48
2022/08/30 00:08:24;;;;;;;;;;;;;;;27.24;47.28;98636.47;5091963;28;20019;-48
2022/08/30 00:10:52;;;;;;;;;;;;;;;27.13;47.53;98635.13;5092916;28;20408;-49
2022/08/30 00:13:19;;;;;;;;;;;;;;;27.04;47.57;98629.69;5092776;28;19939;-50
2022/08/30 00:15:44;;;;;;;;;;;;;;;26.90;48.19;98638.69;5092884;28;19988;-49
2022/08/30 00:18:10;;;;;;;;;;;;;;;26.83;48.14;98635.63;5091525;28;19965;-49
2022/08/30 00:20:36;;;;;;;;;;;;;;;26.82;48.34;98625.97;5091385;28;20309;-48
2022/08/30 00:23:02;;;;;;;;;;;;;;;26.84;48.31;98623.75;5091475;28;19912;-48
2022/08/30 00:25:28;;;;;;;;;;;;;;;26.77;48.00;98626.09;5092666;28;19912;-48
2022/08/30 00:27:53;;;;;;;;;;;;;;;26.69;48.16;98627.63;5092658;28;20359;-49
2022/08/30 00:30:19;;;;;;;;;;;;;;;26.68;47.90;98617.97;5092402;28;19916;-50
2022/08/30 00:32:45;;;;;;;;;;;;;;;26.64;48.37;98629.66;5092521;28;19991;-49
2022/08/30 00:35:12;;;;;;;;;;;;;;;26.61;48.42;98628.38;5092809;28;20381;-48
2022/08/30 00:37:38;;;;;;;;;;;;;;;26.63;47.73;98628.84;5091062;28;20010;-48
2022/08/30 00:40:04;;;;;;;;;;;;;;;26.62;47.93;98621.91;5091876;28;20044;-48
2022/08/30 00:42:31;;;;;;;;;;;;;;;26.62;47.49;98618.38;5091153;28;20420;-48
2022/08/30 00:44:57;;;;;;;;;;;;;;;26.60;47.50;98615.22;5092488;28;20293;-48
2022/08/30 00:47:22;;;;;;;;;;;;;;;26.61;47.59;98595.28;5092404;28;19954;-48
2022/08/30 00:49:53;;;;;;;;;;;;;;;26.79;47.69;98598.84;5092372;28;19947;-48
2022/08/30 00:52:21;;;;;;;;;;;;;;;26.94;46.42;98595.75;5090990;28;19912;-49
2022/08/30 00:54:47;;;;;;;;;;;;;;;26.92;46.24;98603.34;5091022;28;19916;-48
2022/08/30 00:57:13;;;;;;;;;;;;;;;26.86;46.45;98599.19;5092339;28;19919;-48
2022/08/30 00:59:40;;;;;;;;;;;;;;;26.88;46.72;98600.50;5090968;28;19912;-48
2022/08/30 01:02:05;;;;;;;;;;;;;;;26.90;46.13;98584.81;5092237;28;19923;-49
2022/08/30 01:04:32;;;;;;;;;;;;;;;26.93;46.17;98578.00;5092240;28;19912;-48
2022/08/30 01:06:59;;;;;;;;;;;;;;;26.98;46.28;98596.69;5092274;28;19912;-49
2022/08/30 01:09:25;;;;;;;;;;;;;;;26.93;46.24;98594.16;5090871;28;19912;-48
2022/08/30 01:11:50;;;;;;;;;;;;;;;26.96;45.94;98596.22;5092047;28;19919;-48
2022/08/30 01:14:16;;;;;;;;;;;;;;;27.09;45.86;98595.34;5092172;28;20301;-48
2022/08/30 01:16:42;;;;;;;;;;;;;;;27.23;45.90;98603.34;5090789;28;20289;-48
2022/08/30 01:19:24;;;;;;;;;;;;;;;27.20;45.81;98600.44;5092106;28;19959;-48
2022/08/30 01:21:53;;;;;;;;;;;;;;;27.15;45.92;98600.59;5092094;28;19912;-48
2022/08/30 01:24:19;;;;;;;;;;;;;;;27.00;46.51;98599.88;5090762;28;19912;-48
2022/08/30 01:26:45;;;;;;;;;;;;;;;27.07;46.43;98602.16;5091986;28;20286;-48
2022/08/30 01:29:12;;;;;;;;;;;;;;;27.12;45.85;98599.28;5092045;28;19923;-48
2022/08/30 01:31:38;;;;;;;;;;;;;;;27.21;45.62;98594.75;5090291;28;19970;-48
2022/08/30 01:34:06;;;;;;;;;;;;;;;27.46;46.27;98595.94;5090689;28;19912;-48
2022/08/30 01:36:31;;;;;;;;;;;;;;;27.76;45.96;98595.34;5091924;28;19964;-49
2022/08/30 01:38:57;;;;;;;;;;;;;;;27.94;45.38;98599.66;5091924;28;20002;-48
2022/08/30 01:41:27;;;;;;;;;;;;;;;28.08;45.24;98592.19;5091843;28;20405;-50
2022/08/30 01:43:54;;;;;;;;;;;;;;;28.12;45.14;98600.47;5090524;28;19919;-49
2022/08/30 01:46:22;;;;;;;;;;;;;;;28.13;44.75;98602.06;5090536;28;20305;-49
2022/08/30 01:48:48;;;;;;;;;;;;;;;28.01;44.92;98615.38;5091802;28;19912;-49
2022/08/30 01:51:13;;;;;;;;;;;;;;;27.81;45.36;98632.94;5094791;28;20412;-50
2022/08/30 01:53:40;;;;;;;;;;;;;;;27.74;44.98;98646.91;5095481;28;19970;-50
2022/08/30 01:56:06;;;;;;;;;;;;;;;27.64;45.05;98645.28;5095528;28;19923;-50
2022/08/30 01:58:32;;;;;;;;;;;;;;;27.69;44.50;98645.16;5094123;28;20014;-49
2022/08/30 02:00:58;;;;;;;;;;;;;;;27.64;44.70;98660.69;5095423;28;19912;-49
2022/08/30 02:03:25;;;;;;;;;;;;;;;27.53;44.76;98656.69;5095389;28;20011;-50
2022/08/30 02:05:51;;;;;;;;;;;;;;;27.54;44.99;98661.75;5095429;28;19923;-49
2022/08/30 02:08:16;;;;;;;;;;;;;;;27.49;44.88;98659.22;5094002;28;19912;-50
2022/08/30 02:10:42;;;;;;;;;;;;;;;27.45;44.65;98647.47;5095259;28;19912;-50
2022/08/30 02:13:08;;;;;;;;;;;;;;;27.42;45.05;98648.09;5093874;28;19965;-50
2022/08/30 02:15:34;;;;;;;;;;;;;;;27.35;45.08;98648.56;5095064;28;20341;-50
2022/08/30 02:18:00;;;;;;;;;;;;;;;27.31;45.64;98636.81;5095099;28;19912;-50
2022/08/30 02:20:25;;;;;;;;;;;;;;;27.38;46.22;98636.34;5094985;28;19916;-50
2022/08/30 02:22:51;;;;;;;;;;;;;;;27.60;46.28;98632.75;5093609;28;20295;-50
2022/08/30 02:25:16;;;;;;;;;;;;;;;27.71;45.55;98639.44;5094950;28;19923;-50
2022/08/30 02:27:42;;;;;;;;;;;;;;;27.54;46.34;98636.72;5093591;28;20363;-50
2022/08/30 02:30:08;;;;;;;;;;;;;;;27.47;47.33;98639.88;5093282;28;19920;-49
2022/08/30 02:32:36;;;;;;;;;;;;;;;27.32;47.19;98635.69;5094770;28;19912;-49
2022/08/30 02:35:02;;;;;;;;;;;;;;;27.05;47.85;98634.78;5093410;28;20011;-50
2022/08/30 02:37:27;;;;;;;;;;;;;;;26.92;48.95;98629.47;5094747;28;19999;-50
2022/08/30 02:39:53;;;;;;;;;;;;;;;26.84;49.38;98631.03;5093365;28;20007;-50
2022/08/30 02:42:19;;;;;;;;;;;;;;;26.95;49.09;98626.19;5094579;28;20360;-48
2022/08/30 02:44:44;;;;;;;;;;;;;;;26.89;48.71;98620.91;5094637;28;19916;-49
2022/08/30 02:47:10;;;;;;;;;;;;;;;26.94;48.90;98619.97;5094540;28;19913;-50
2022/08/30 02:49:36;;;;;;;;;;;;;;;26.98;48.07;98614.78;5094430;28;19916;-50
2022/08/30 02:52:02;;;;;;;;;;;;;;;26.87;48.25;98615.03;5093027;28;19916;-50
2022/08/30 02:54:31;;;;;;;;;;;;;;;26.84;48.63;98604.91;5094416;28;20007;-50
2022/08/30 02:56:57;;;;;;;;;;;;;;;26.75;48.67;98609.44;5094375;28;19962;-50
2022/08/30 02:59:22;;;;;;;;;;;;;;;26.75;48.71;98608.66;5094321;28;19912;-50
2022/08/30 03:01:47;;;;;;;;;;;;;;;26.80;49.14;98598.56;5093388;28;19911;-49
2022/08/30 03:04:16;;;;;;;;;;;;;;;26.91;48.71;98596.38;5092928;28;19984;-50
2022/08/30 03:06:41;;;;;;;;;;;;;;;26.88;48.44;98602.38;5092831;28;19912;-48
2022/08/30 03:09:06;;;;;;;;;;;;;;;26.63;48.92;98601.16;5092794;28;20278;-49
2022/08/30 03:11:33;;;;;;;;;;;;;;;26.43;49.35;98603.22;5093946;28;20385;-50
2022/08/30 03:13:59;;;;;;;;;;;;;;;26.24;50.34;98592.66;5094053;28;19954;-50
2022/08/30 03:16:24;;;;;;;;;;;;;;;26.28;51.48;98592.84;5093915;28;19958;-49
2022/08/30 03:18:50;;;;;;;;;;;;;;;26.42;50.82;98588.19;5092607;28;19912;-49
2022/08/30 03:21:16;;;;;;;;;;;;;;;26.28;50.86;98587.47;5093829;28;19923;-49
2022/08/30 03:23:41;;;;;;;;;;;;;;;26.07;51.48;98589.81;5093809;28;19912;-50
2022/08/30 03:26:08;;;;;;;;;;;;;;;26.09;51.54;98588.41;5093757;28;19977;-49
2022/08/30 03:28:33;;;;;;;;;;;;;;;26.19;51.54;98582.00;5092418;28;19911;-50
2022/08/30 03:30:59;;;;;;;;;;;;;;;26.11;51.48;98580.03;5093433;28;20392;-50
2022/08/30 03:33:24;;;;;;;;;;;;;;;25.95;51.83;98584.19;5093540;28;19936;-50
2022/08/30 03:35:49;;;;;;;;;;;;;;;25.96;52.61;98581.22;5092286;28;19965;-49
2022/08/30 03:38:15;;;;;;;;;;;;;;;26.19;52.01;98573.16;5092227;28;19958;-49
2022/08/30 03:40:40;;;;;;;;;;;;;;;26.25;51.65;98566.53;5092206;28;20467;-49
2022/08/30 03:43:06;;;;;;;;;;;;;;;26.13;51.54;98563.59;5092106;28;20372;-50
2022/08/30 03:45:35;;;;;;;;;;;;;;;26.00;52.07;98560.69;5092012;28;19912;-48
2022/08/30 03:48:01;;;;;;;;;;;;;;;25.95;51.86;98551.94;5092082;28;20211;-50
2022/08/30 03:50:28;;;;;;;;;;;;;;;26.11;51.57;98559.31;5093297;28;19916;-50
2022/08/30 03:52:54;;;;;;;;;;;;;;;26.04;51.14;98566.25;5093202;28;19911;-50
2022/08/30 03:55:20;;;;;;;;;;;;;;;25.86;51.41;98566.06;5093196;28;20404;-49
2022/08/30 03:57:45;;;;;;;;;;;;;;;25.74;52.01;98571.19;5091943;28;20278;-50
2022/08/30 04:00:12;;;;;;;;;;;;;;;25.70;52.09;98578.28;5093135;28;19912;-49
2022/08/30 04:02:38;;;;;;;;;;;;;;;25.74;52.35;98576.56;5093115;28;19912;-50
2022/08/30 04:05:03;;;;;;;;;;;;;;;25.69;51.99;98582.03;5091790;28;19934;-50
2022/08/30 04:07:29;;;;;;;;;;;;;;;25.54;52.04;98587.75;5091669;28;19951;-50
2022/08/30 04:09:54;;;;;;;;;;;;;;;25.49;52.05;98584.09;5092946;28;19912;-50
2022/08/30 04:12:20;;;;;;;;;;;;;;;25.60;51.82;98591.94;5092786;28;19916;-50
2022/08/30 04:14:45;;;;;;;;;;;;;;;25.60;51.52;98587.34;5092913;28;19923;-48
2022/08/30 04:17:11;;;;;;;;;;;;;;;25.63;51.52;98592.09;5091514;28;20010;-50
2022/08/30 04:19:36;;;;;;;;;;;;;;;25.68;51.58;98591.22;5092831;28;19943;-49
2022/08/30 04:22:02;;;;;;;;;;;;;;;25.73;51.76;98591.09;5092800;28;20297;-50
2022/08/30 04:24:27;;;;;;;;;;;;;;;25.83;51.44;98596.25;5092770;28;19958;-50
2022/08/30 04:26:52;;;;;;;;;;;;;;;25.92;51.46;98596.38;5092693;28;19916;-50
2022/08/30 04:29:18;;;;;;;;;;;;;;;25.96;51.70;98600.03;5092456;28;20325;-51
2022/08/30 04:31:44;;;;;;;;;;;;;;;26.04;51.96;98602.00;5092548;28;20290;-48
2022/08/30 04:34:10;;;;;;;;;;;;;;;26.27;51.92;98602.00;5091287;28;20305;-48
2022/08/30 04:36:36;;;;;;;;;;;;;;;26.51;50.89;98599.00;5092557;28;19916;-48
2022/08/30 04:39:01;;;;;;;;;;;;;;;26.31;51.40;98592.22;5074446;28;19919;-48
2022/08/30 04:41:27;;;;;;;;;;;;;;;26.09;51.55;98593.78;5092501;28;20285;-48
2022/08/30 04:43:52;;;;;;;;;;;;;;;25.93;52.39;98597.94;5091261;28;19912;-48
2022/08/30 04:46:18;;;;;;;;;;;;;;;25.81;52.87;98603.03;5091157;28;19915;-48
2022/08/30 04:48:45;;;;;;;;;;;;;;;25.73;53.09;98601.06;5091115;28;19912;-48
2022/08/30 04:51:12;;;;;;;;;;;;;;;25.73;52.98;98604.53;5092362;28;20454;-48
2022/08/30 04:53:39;;;;;;;;;;;;;;;25.70;53.55;98603.25;5092297;28;19912;-48
2022/08/30 04:56:09;;;;;;;;;;;;;;;25.74;53.51;98611.50;5092324;28;19912;-48
2022/08/30 04:58:34;;;;;;;;;;;;;;;25.56;53.66;98615.91;5092322;28;20286;-48
2022/08/30 05:01:00;;;;;;;;;;;;;;;25.49;54.21;98619.03;5090951;28;19912;-47
2022/08/30 05:03:25;;;;;;;;;;;;;;;25.58;54.19;98621.78;5090956;28;19923;-48
2022/08/30 05:05:51;;;;;;;;;;;;;;;25.74;54.08;98624.16;5092225;28;20385;-48
2022/08/30 05:08:18;;;;;;;;;;;;;;;25.89;53.68;98627.28;5090934;28;19919;-48
2022/08/30 05:10:44;;;;;;;;;;;;;;;25.91;53.31;98624.34;5090873;28;19912;-48
2022/08/30 05:13:11;;;;;;;;;;;;;;;25.89;53.51;98629.97;5092110;28;19957;-48
2022/08/30 05:15:38;;;;;;;;;;;;;;;25.99;53.40;98629.00;5090798;28;19923;-48
2022/08/30 05:18:04;;;;;;;;;;;;;;;26.10;53.04;98629.56;5092118;28;20429;-49
2022/08/30 05:20:29;;;;;;;;;;;;;;;26.07;53.06;98633.66;5092090;28;19912;-49
2022/08/30 05:22:55;;;;;;;;;;;;;;;26.07;53.02;98630.97;5092007;28;19916;-48
2022/08/30 05:25:25;;;;;;;;;;;;;;;26.28;52.61;98623.22;5093849;28;19919;-49
2022/08/30 05:27:51;;;;;;;;;;;;;;;26.43;52.00;98624.75;5096312;28;20372;-48
2022/08/30 05:30:17;;;;;;;;;;;;;;;26.46;51.64;98634.09;5095808;28;19923;-50
2022/08/30 05:32:42;;;;;;;;;;;;;;;26.46;51.73;98632.22;5094751;28;19912;-49
2022/08/30 05:35:09;;;;;;;;;;;;;;;26.31;51.50;98635.25;5095908;28;19912;-49
2022/08/30 05:37:34;;;;;;;;;;;;;;;26.16;52.40;98643.69;5095907;28;20007;-49
2022/08/30 05:40:00;;;;;;;;;;;;;;;26.19;52.38;98645.78;5094521;28;19954;-49
2022/08/30 05:42:26;;;;;;;;;;;;;;;26.30;52.43;98647.13;5095807;28;19966;-49
2022/08/30 05:44:52;;;;;;;;;;;;;;;26.58;52.13;98652.41;5094470;28;19916;-48
2022/08/30 05:47:18;;;;;;;;;;;;;;;26.77;51.57;98644.94;5094374;28;20308;-48
2022/08/30 05:49:44;;;;;;;;;;;;;;;26.82;51.18;98650.19;5095701;28;19911;-48
2022/08/30 05:52:09;;;;;;;;;;;;;;;27.01;51.36;98660.75;5095520;28;19935;-48
2022/08/30 05:54:34;;;;;;;;;;;;;;;27.23;50.18;98657.22;5095616;28;19934;-48
2022/08/30 05:57:00;;;;;;;;;;;;;;;27.41;49.79;98662.69;5095530;28;19998;-48
2022/08/30 05:59:26;;;;;;;;;;;;;;;27.37;49.59;98659.03;5095388;28;20008;-49
2022/08/30 06:01:55;;;;;;;;;;;;;;;27.35;49.76;98666.63;5095424;28;19916;-48
2022/08/30 06:04:20;;;;;;;;;;;;;;;27.18;49.59;98670.00;5094059;28;19976;-49
2022/08/30 06:06:46;;;;;;;;;;;;;;;26.95;50.48;98677.34;5094016;28;19916;-50
2022/08/30 06:09:12;;;;;;;;;;;;;;;26.95;50.84;98674.66;5093971;28;19912;-48
2022/08/30 06:11:38;;;;;;;;;;;;;;;26.94;50.82;98678.44;5093938;28;19912;-48
2022/08/30 06:14:04;;;;;;;;;;;;;;;26.90;51.22;98686.34;5095190;28;20462;-48
2022/08/30 06:16:29;;;;;;;;;;;;;;;27.05;50.77;98685.16;5095164;28;19965;-48
2022/08/30 06:18:56;;;;;;;;;;;;;;;27.03;50.68;98687.38;5095190;28;19924;-48
2022/08/30 06:21:23;;;;;;;;;;;;;;;27.04;50.44;98686.25;5095037;28;19963;-49
2022/08/30 06:23:49;;;;;;;;;;;;;;;27.10;50.32;98683.16;5095062;28;19912;-49
2022/08/30 06:26:15;;;;;;;;;;;;;;;27.35;50.41;98691.69;5094965;28;19961;-48
2022/08/30 06:28:44;;;;;;;;;;;;;;;27.63;49.76;98686.84;5094949;28;19911;-50
2022/08/30 06:31:10;;;;;;;;;;;;;;;27.86;49.35;98700.22;5094614;28;20377;-48
2022/08/30 06:33:36;;;;;;;;;;;;;;;27.95;48.51;98695.69;5094757;28;20018;-48
2022/08/30 06:36:03;;;;;;;;;;;;;;;27.87;48.15;98696.47;5093817;28;20459;-48
2022/08/30 06:38:28;;;;;;;;;;;;;;;27.43;49.00;98695.53;5094451;28;19912;-48
2022/08/30 06:40:54;;;;;;;;;;;;;;;27.05;50.21;98694.03;5094696;28;19958;-50
2022/08/30 06:43:19;;;;;;;;;;;;;;;26.83;50.71;98702.94;5094594;28;19951;-48
2022/08/30 06:45:46;;;;;;;;;;;;;;;26.62;51.04;98716.13;5094545;28;20402;-47
2022/08/30 06:48:12;;;;;;;;;;;;;;;26.55;51.53;98718.41;5094589;28;19959;-48
2022/08/30 06:50:38;;;;;;;;;;;;;;;26.63;51.54;98715.00;5094450;28;19916;-48
2022/08/30 06:53:04;;;;;;;;;;;;;;;26.56;51.54;98720.00;5094308;28;19912;-48
2022/08/30 06:55:33;;;;;;;;;;;;;;;26.58;51.49;98723.22;5094425;28;20275;-49
2022/08/30 06:57:59;;;;;;;;;;;;;;;26.76;51.64;98716.03;5094358;28;20006;-48
2022/08/30 07:00:25;;;;;;;;;;;;;;;27.01;50.88;98719.22;5094306;28;20286;-49
2022/08/30 07:02:50;;;;;;;;;;;;;;;27.02;50.68;98726.97;5094296;28;19958;-48
2022/08/30 07:05:16;;;;;;;;;;;;;;;26.97;50.77;98727.13;5094186;28;19969;-48
2022/08/30 07:07:42;;;;;;;;;;;;;;;27.23;50.55;98726.47;5094159;28;19911;-48
2022/08/30 07:10:08;;;;;;;;;;;;;;;27.39;49.84;98727.69;5094383;28;20293;-48
2022/08/30 07:12:34;;;;;;;;;;;;;;;27.50;49.43;98728.19;5092678;28;20349;-48
2022/08/30 07:15:00;;;;;;;;;;;;;;;27.46;49.52;98735.31;5093977;28;19954;-49
2022/08/30 07:20:10;;;;;;;;;;;;;;;27.45;49.91;98736.44;5093922;28;19967;-50
2022/08/30 07:22:35;;;;;;;;;;;;;;;27.46;49.68;98738.78;5093876;28;19947;-48
2022/08/30 07:25:01;;;;;;;;;;;;;;;27.50;49.68;98741.66;5092494;28;19957;-49
2022/08/30 07:27:26;;;;;;;;;;;;;;;27.58;49.67;98743.59;5092511;28;19923;-47
2022/08/30 07:29:52;;;;;;;;;;;;;;;27.50;49.18;98738.97;5093498;28;20385;-48
2022/08/30 07:32:20;;;;;;;;;;;;;;;27.38;50.03;98734.16;5092303;28;20282;-48
2022/08/30 07:34:46;;;;;;;;;;;;;;;27.58;50.47;98742.81;5093636;28;19916;-48
2022/08/30 07:37:11;;;;;;;;;;;;;;;27.66;49.71;98745.53;5093525;28;20404;-48
2022/08/30 07:39:37;;;;;;;;;;;;;;;27.63;50.11;98742.69;5092297;28;20384;-48
2022/08/30 07:42:02;;;;;;;;;;;;;;;27.65;50.34;98735.88;5093474;28;20385;-48
2022/08/30 07:44:28;;;;;;;;;;;;;;;27.68;49.90;98740.63;5093515;28;19999;-48
2022/08/30 07:46:54;;;;;;;;;;;;;;;27.65;50.52;98743.97;5093354;28;20385;-48
2022/08/30 07:49:19;;;;;;;;;;;;;;;27.74;50.00;98743.19;5091715;28;19912;-48
2022/08/30 07:51:44;;;;;;;;;;;;;;;27.87;49.82;98745.81;5093507;28;20015;-49
2022/08/30 07:54:10;;;;;;;;;;;;;;;27.90;49.54;98749.78;5092007;28;20004;-48
2022/08/30 07:56:35;;;;;;;;;;;;;;;28.02;49.30;98752.66;5093262;28;19916;-50
2022/08/30 07:59:01;;;;;;;;;;;;;;;28.17;49.27;98754.13;5093196;28;19973;-48
2022/08/30 08:01:26;;;;;;;;;;;;;;;28.22;49.08;98759.34;5091840;28;19912;-48
2022/08/30 08:03:52;;;;;;;;;;;;;;;28.33;49.38;98753.66;5093088;28;19916;-48
2022/08/30 08:06:19;;;;;;;;;;;;;;;28.63;48.40;98749.25;5092982;28;19918;-48
2022/08/30 08:08:45;;;;;;;;;;;;;;;29.05;47.50;98750.31;5093038;28;19934;-49
2022/08/30 08:11:13;;;;;;;;;;;;;;;29.63;45.94;98742.66;5092957;28;20010;-48
2022/08/30 08:13:40;;;;;;;;;;;;;;;30.20;44.64;98746.03;5092821;28;19916;-49
2022/08/30 08:16:05;;;;;;;;;;;;;;;30.58;43.34;98740.50;5092822;28;19915;-48
2022/08/30 08:18:33;;;;;;;;;;;;;;;30.70;43.23;98744.41;5091535;28;19961;-48
2022/08/30 08:20:59;;;;;;;;;;;;;;;30.80;42.68;98738.56;5092776;28;19912;-48
2022/08/30 08:23:25;;;;;;;;;;;;;;;31.21;43.10;98740.41;5091505;28;20293;-49
2022/08/30 08:25:51;;;;;;;;;;;;;;;33.32;38.59;98736.91;5092977;28;20331;-48
2022/08/30 08:28:17;;;;;;;;;;;;;;;35.08;35.39;98729.03;5092678;28;19912;-49
2022/08/30 08:30:42;;;;;;;;;;;;;;;35.13;34.39;98731.44;5091083;28;19916;-48
2022/08/30 08:33:08;;;;;;;;;;;;;;;34.25;35.67;98743.78;5092543;28;19985;-48
2022/08/30 08:35:33;;;;;;;;;;;;;;;33.43;37.08;98734.47;5092830;28;20006;-50
2022/08/30 08:37:59;;;;;;;;;;;;;;;33.85;36.68;98735.84;5091293;28;19969;-50
2022/08/30 08:40:25;;;;;;;;;;;;;;;33.74;36.84;98735.59;5092509;28;19912;-48
2022/08/30 08:43:09;;;;;;;;;;;;;;;33.32;37.35;98731.47;5092529;28;19923;-49
2022/08/30 08:45:54;;;;;;;;;;;;;;;33.30;37.55;98735.69;5091135;28;19912;-49
2022/08/30 08:48:31;;;;;;;;;;;;;;;33.30;37.57;98731.03;5092473;28;19916;-50
2022/08/30 08:53:43;;;;;;;;;;;;;;;32.87;38.16;98737.28;5092359;28;19919;-50
2022/08/30 08:56:11;;;;;;;;;;;;;;;32.99;36.32;98739.94;5092279;28;20431;-50
2022/08/30 08:58:47;;;;;;;;;;;;;;;33.00;36.50;98736.06;5092245;28;19916;-50
2022/08/30 09:01:15;;;;;;;;;;;;;;;33.17;36.56;98738.50;5092108;28;19912;-49
2022/08/30 09:03:41;;;;;;;;;;;;;;;33.70;35.19;98740.19;5092305;28;20441;-50
2022/08/30 09:06:27;;;;;;;;;;;;;;;34.11;34.61;98736.06;5090844;28;20014;-50
2022/08/30 09:08:53;;;;;;;;;;;;;;;34.01;34.22;98742.84;5084747;28;19934;-50
2022/08/30 09:11:24;;;;;;;;;;;;;;;33.78;34.72;98739.97;5090915;28;20366;-50
2022/08/30 09:13:49;;;;;;;;;;;;;;;33.62;35.34;98734.59;5092170;28;19919;-49
2022/08/30 09:16:33;;;;;;;;;;;;;;;33.73;35.24;98751.16;5092150;28;19912;-50
2022/08/30 09:18:59;;;;;;;;;;;;;;;33.77;34.82;98740.34;5092123;28;19958;-49
2022/08/30 09:21:27;;;;;;;;;;;;;;;33.59;34.59;98740.69;5092033;28;19915;-50
2022/08/30 09:23:57;;;;;;;;;;;;;;;33.17;35.27;98733.06;5090867;28;19959;-50
2022/08/30 09:26:28;;;;;;;;;;;;;;;32.96;35.93;98735.19;5092051;28;20313;-50
2022/08/30 09:28:53;;;;;;;;;;;;;;;33.23;35.72;98741.75;5092318;28;20376;-50
2022/08/30 09:31:24;;;;;;;;;;;;;;;33.51;35.09;98736.22;5090558;28;20003;-48
2022/08/30 09:34:10;;;;;;;;;;;;;;;33.54;35.12;98732.78;5091992;28;19912;-50
2022/08/30 09:36:43;;;;;;;;;;;;;;;33.54;35.43;98732.00;5090164;28;19916;-50
2022/08/30 09:39:26;;;;;;;;;;;;;;;33.65;35.63;98726.84;5091970;28;19995;-50
2022/08/30 09:41:52;;;;;;;;;;;;;;;33.97;35.27;98724.84;5091916;28;19965;-50
2022/08/30 09:44:19;;;;;;;;;;;;;;;34.40;34.89;98720.31;5091934;28;19916;-49
2022/08/30 09:46:47;;;;;;;;;;;;;;;34.64;34.48;98721.19;5091910;28;20293;-50
2022/08/30 09:49:35;;;;;;;;;;;;;;;34.56;34.43;98712.06;5091876;28;19961;-50
2022/08/30 09:52:11;;;;;;;;;;;;;;;34.63;34.44;98712.19;5091728;28;19920;-50
2022/08/30 09:54:59;;;;;;;;;;;;;;;34.59;33.83;98714.88;5091783;28;20427;-50
2022/08/30 09:57:31;;;;;;;;;;;;;;;34.44;33.41;98706.78;5071304;28;19912;-50
2022/08/30 10:00:23;;;;;;;;;;;;;;;34.30;33.47;98708.06;5091822;28;20019;-50
2022/08/30 10:03:17;;;;;;;;;;;;;;;34.13;33.80;98695.63;5089512;28;20403;-50
2022/08/30 10:05:55;;;;;;;;;;;;;;;34.17;34.03;98701.97;5090451;28;19923;-50
2022/08/30 10:08:30;;;;;;;;;;;;;;;34.25;33.85;98694.75;5091754;28;20007;-50
2022/08/30 10:11:02;;;;;;;;;;;;;;;34.38;33.58;98687.97;5092669;28;19922;-49
2022/08/30 10:13:35;;;;;;;;;;;;;;;34.45;33.67;98689.25;5093858;28;20003;-50
2022/08/30 10:16:07;;;;;;;;;;;;;;;34.46;33.53;98693.56;5095257;28;20404;-50
2022/08/30 10:18:37;;;;;;;;;;;;;;;34.36;33.51;98701.16;5095412;28;20333;-50
2022/08/30 10:21:12;;;;;;;;;;;;;;;34.30;33.83;98696.38;5093817;28;19955;-51
2022/08/30 10:23:41;;;;;;;;;;;;;;;34.39;33.69;98708.63;5093763;28;19962;-49
2022/08/30 10:26:27;;;;;;;;;;;;;;;34.36;33.44;98712.06;5095023;28;19912;-50
2022/08/30 10:29:02;;;;;;;;;;;;;;;33.96;34.73;98704.97;5094998;28;19918;-50
2022/08/30 10:31:38;;;;;;;;;;;;;;;33.49;35.79;98715.97;5094658;28;19916;-49
2022/08/30 10:34:10;;;;;;;;;;;;;;;33.18;37.74;98717.53;5093632;28;19916;-50
2022/08/30 10:36:43;;;;;;;;;;;;;;;33.01;39.54;98727.56;5093547;28;19915;-48
2022/08/30 10:39:12;;;;;;;;;;;;;;;32.26;43.92;98725.50;5093482;28;19919;-48
2022/08/30 10:41:40;;;;;;;;;;;;;;;30.81;47.93;98751.78;5094627;28;19912;-48
2022/08/30 10:44:10;;;;;;;;;;;;;;;29.15;54.10;98773.53;5093344;28;19916;-48
2022/08/30 10:46:57;;;;;;;;;;;;;;;27.03;59.43;98789.75;5093307;28;19916;-49
2022/08/30 10:49:24;;;;;;;;;;;;;;;25.30;63.97;98779.50;5076499;28;20301;-48
2022/08/30 10:52:15;;;;;;;;;;;;;;;24.29;66.08;98778.03;5094670;28;20296;-48
2022/08/30 10:54:58;;;;;;;;;;;;;;;23.17;66.58;98793.38;5094500;28;19912;-49
2022/08/30 10:57:24;;;;;;;;;;;;;;;22.33;69.36;98788.78;5094398;28;19919;-48
2022/08/30 11:00:00;;;;;;;;;;;;;;;21.43;68.51;98746.84;5094354;28;19912;-48
2022/08/30 11:02:55;;;;;;;;;;;;;;;21.07;71.44;98730.84;5092988;28;19924;-49
2022/08/30 11:05:39;;;;;;;;;;;;;;;21.32;75.41;98746.81;5051545;28;20437;-49
2022/08/30 11:08:13;;;;;;;;;;;;;;;21.34;76.62;98754.56;5051674;28;20495;-49
2022/08/30 11:11:08;;;;;;;;;;;;;;;21.28;77.79;98761.78;5051695;28;19928;-49
2022/08/30 11:13:35;;;;;;;;;;;;;;;21.58;78.91;98778.06;5042775;28;19912;-49
2022/08/30 11:16:04;;;;;;;;;;;;;;;21.97;79.77;98785.44;5051555;28;19912;-49
2022/08/30 11:18:44;;;;;;;;;;;;;;;22.30;79.93;98782.13;5051458;28;20406;-49
2022/08/30 11:21:31;;;;;;;;;;;;;;;22.53;80.22;98775.31;5051375;28;20352;-49
2022/08/30 11:24:07;;;;;;;;;;;;;;;22.94;80.45;98777.72;5050835;28;20374;-50
2022/08/30 11:26:48;;;;;;;;;;;;;;;23.19;80.31;98786.66;5051477;28;19912;-50
2022/08/30 11:29:29;;;;;;;;;;;;;;;23.39;80.46;98779.53;5051377;28;19920;-49
2022/08/30 11:31:55;;;;;;;;;;;;;;;23.49;78.87;98774.88;5051174;28;20406;-49
2022/08/30 11:34:56;;;;;;;;;;;;;;;23.60;78.73;98770.19;5051215;28;19919;-50
2022/08/30 11:37:36;;;;;;;;;;;;;;;23.76;79.20;98764.69;5011471;28;20008;-49
2022/08/30 11:40:07;;;;;;;;;;;;;;;23.97;80.44;98747.31;5011401;28;19914;-51
2022/08/30 11:42:35;;;;;;;;;;;;;;;24.13;78.50;98750.59;5044432;28;20003;-50
2022/08/30 11:45:19;;;;;;;;;;;;;;;24.42;79.27;98755.84;5051085;28;19912;-48
2022/08/30 11:47:49;;;;;;;;;;;;;;;24.84;79.83;98759.53;5034308;28;19921;-50
2022/08/30 11:50:33;;;;;;;;;;;;;;;25.18;78.36;98761.16;5050988;28;20336;-51
2022/08/30 11:53:04;;;;;;;;;;;;;;;25.49;77.90;98756.06;5034041;28;19939;-50
2022/08/30 11:55:41;;;;;;;;;;;;;;;25.77;75.60;98757.97;5034186;28;20425;-51
2022/08/30 11:58:06;;;;;;;;;;;;;;;26.48;72.65;98744.94;5050814;28;19924;-50
2022/08/30 12:00:38;;;;;;;;;;;;;;;27.85;70.19;98733.72;5050766;28;19913;-49
2022/08/30 12:03:05;;;;;;;;;;;;;;;29.13;64.98;98723.63;5050669;28;19923;-50
2022/08/30 12:05:43;;;;;;;;;;;;;;;30.43;72.25;98720.25;5050616;28;20011;-50
2022/08/30 12:08:08;;;;;;;;;;;;;;;31.73;71.46;98709.13;5050720;28;19919;-49
2022/08/30 12:10:39;;;;;;;;;;;;;;;32.74;69.81;98712.88;5058413;28;19912;-50
2022/08/30 12:13:05;;;;;;;;;;;;;;;33.81;70.57;98714.00;5091707;28;19916;-50
2022/08/30 12:15:55;;;;;;;;;;;;;;;34.90;70.98;98698.72;5092935;28;19912;-49
2022/08/30 12:18:26;;;;;;;;;;;;;;;36.21;67.56;98697.63;5093000;28;19919;-50
2022/08/30 12:20:53;;;;;;;;;;;;;;;37.09;60.96;98691.53;5092906;28;19919;-49
2022/08/30 12:23:33;;;;;;;;;;;;;;;37.47;58.32;98692.22;5091464;28;19919;-49
2022/08/30 12:26:31;;;;;;;;;;;;;;;38.09;54.39;98694.19;5092718;28;19915;-47
2022/08/30 12:29:14;;;;;;;;;;;;;;;38.74;48.45;98694.41;5069261;28;19912;-49
2022/08/30 12:31:41;;;;;;;;;;;;;;;38.87;42.03;98697.56;5091155;28;20393;-49
2022/08/30 12:34:06;;;;;;;;;;;;;;;38.86;38.08;98702.28;5091867;28;19916;-49
2022/08/30 12:36:39;;;;;;;;;;;;;;;38.80;38.30;98711.25;5092423;28;19935;-50
2022/08/30 12:39:07;;;;;;;;;;;;;;;39.06;39.15;98708.19;5092622;28;19919;-50
2022/08/30 12:41:33;;;;;;;;;;;;;;;39.14;38.23;98706.25;5092508;28;19915;-50
2022/08/30 12:43:59;;;;;;;;;;;;;;;39.16;37.08;98701.16;5092387;28;19912;-50
2022/08/30 12:46:25;;;;;;;;;;;;;;;38.81;34.01;98699.91;5092397;28;20003;-50
2022/08/30 12:48:51;;;;;;;;;;;;;;;38.29;32.55;98694.63;5092439;28;19912;-50
2022/08/30 12:51:35;;;;;;;;;;;;;;;38.01;33.49;98689.03;5091127;28;19916;-50
2022/08/30 12:54:03;;;;;;;;;;;;;;;37.99;35.46;98686.66;5092719;28;19919;-49
2022/08/30 12:56:44;;;;;;;;;;;;;;;38.64;36.34;98684.22;5092326;28;19916;-50
2022/08/30 12:59:10;;;;;;;;;;;;;;;38.66;32.59;98679.13;5091067;28;20273;-49
2022/08/30 13:01:35;;;;;;;;;;;;;;;38.67;33.90;98667.75;5090944;28;19916;-50